Time;durP1;ratioP1;P1;durP2;ratioP2;P2;SDS_P1;SDS_P2;PMS_P1;PMS_P2;Temp;Humidity;BMP_temperature;BMP_pressure;BME280_temperature;BME280_humidity;BME280_pressure;Samples;Min_cycle;Max_cycle;Signal;HPM_P1;HPM_P2
2021/01/17 00:00:24;;;;;;;21.77;13.30;;;1.30;24.50;;;;;;5074364;28;20188;-67
2021/01/17 00:02:51;;;;;;;22.08;13.45;;;1.50;3.00;;;;;;5074348;28;20203;-67
2021/01/17 00:05:20;;;;;;;18.63;11.82;;;1.40;1.00;;;;;;5074075;28;20255;-66
2021/01/17 00:07:45;;;;;;;21.23;12.52;;;1.50;1.00;;;;;;5073516;28;20192;-68
2021/01/17 00:10:12;;;;;;;21.67;12.70;;;1.70;1.00;;;;;;5074277;28;20223;-68
2021/01/17 00:12:39;;;;;;;27.10;13.00;;;1.50;1.00;;;;;;5074092;28;20222;-66
2021/01/17 00:15:11;;;;;;;22.92;12.32;;;1.50;1.50;;;;;;5074005;28;20168;-67
2021/01/17 00:17:41;;;;;;;20.27;12.93;;;1.60;1.00;;;;;;5073919;28;20183;-67
2021/01/17 00:20:12;;;;;;;18.95;13.20;;;1.70;1.00;;;;;;5073858;28;20191;-67
2021/01/17 00:22:39;;;;;;;20.27;13.13;;;1.60;1.00;;;;;;5073923;28;20172;-67
2021/01/17 00:25:06;;;;;;;20.20;12.50;;;1.60;1.00;;;;;;5073902;28;20506;-67
2021/01/17 00:27:32;;;;;;;20.05;12.60;;;1.70;1.00;;;;;;5074020;28;20230;-67
2021/01/17 00:29:57;;;;;;;25.20;13.73;;;1.40;21.60;;;;;;5073953;28;20184;-67
2021/01/17 00:32:23;;;;;;;18.60;11.47;;;1.40;11.60;;;;;;5073780;28;20574;-67
2021/01/17 00:34:49;;;;;;;20.17;12.33;;;1.40;6.60;;;;;;5073687;28;20222;-67
2021/01/17 00:37:15;;;;;;;21.13;11.83;;;1.60;27.50;;;;;;5073753;28;20229;-67
2021/01/17 00:39:41;;;;;;;19.98;13.20;;;1.60;1.00;;;;;;5073565;28;20191;-67
2021/01/17 00:42:14;;;;;;;17.63;11.40;;;1.50;1.00;;;;;;5073780;28;20170;-68
2021/01/17 00:44:41;;;;;;;19.42;11.35;;;1.40;1.00;;;;;;5073911;28;20419;-67
2021/01/17 00:47:06;;;;;;;19.80;12.50;;;1.30;9.50;;;;;;5072198;28;20210;-68
2021/01/17 00:49:32;;;;;;;22.13;11.77;;;1.50;5.00;;;;;;5073329;28;20207;-68
2021/01/17 00:51:58;;;;;;;20.60;12.67;;;1.60;9.10;;;;;;5073538;28;20165;-67
2021/01/17 00:54:23;;;;;;;22.50;11.50;;;1.40;1.00;;;;;;5073576;28;20489;-67
2021/01/17 00:56:49;;;;;;;24.17;12.87;;;1.40;11.40;;;;;;5073300;28;20172;-67
2021/01/17 00:59:15;;;;;;;20.40;13.67;;;1.60;1.00;;;;;;5073235;28;20188;-67
2021/01/17 01:01:42;;;;;;;19.00;11.50;;;1.40;16.90;;;;;;5073336;28;20769;-67
2021/01/17 01:04:09;;;;;;;21.35;12.88;;;1.10;13.40;;;;;;5073158;28;20254;-68
2021/01/17 01:06:35;;;;;;;22.67;12.52;;;1.10;30.90;;;;;;5073350;28;20199;-67
2021/01/17 01:09:05;;;;;;;23.00;13.30;;;1.40;43.10;;;;;;5073043;28;20164;-67
2021/01/17 01:11:31;;;;;;;23.45;13.05;;;1.50;47.90;;;;;;5073106;28;20168;-67
2021/01/17 01:13:56;;;;;;;20.93;12.10;;;1.50;18.30;;;;;;5073083;28;20652;-67
2021/01/17 01:16:22;;;;;;;21.20;11.80;;;1.50;23.30;;;;;;5073052;28;20637;-67
2021/01/17 01:18:48;;;;;;;23.80;12.73;;;1.50;6.50;;;;;;5072367;28;20168;-67
2021/01/17 01:21:13;;;;;;;21.53;13.50;;;1.40;3.10;;;;;;5072952;28;20266;-67
2021/01/17 01:23:41;;;;;;;25.33;12.67;;;1.40;34.00;;;;;;5072959;28;20168;-66
2021/01/17 01:26:07;;;;;;;18.48;12.45;;;1.30;48.20;;;;;;5072879;28;20188;-67
2021/01/17 01:28:32;;;;;;;20.70;12.83;;;1.50;38.00;;;;;;5072932;28;20514;-67
2021/01/17 01:30:58;;;;;;;21.97;13.77;;;1.40;18.00;;;;;;5072889;28;20446;-67
2021/01/17 01:33:24;;;;;;;21.50;12.43;;;1.30;74.00;;;;;;5073131;28;20565;-67
2021/01/17 01:35:50;;;;;;;21.27;13.00;;;1.40;99.90;;;;;;5072987;28;20202;-68
2021/01/17 01:38:16;;;;;;;20.90;12.98;;;1.40;62.50;;;;;;5072762;28;20180;-67
2021/01/17 01:40:52;;;;;;;25.40;14.25;;;1.50;52.30;;;;;;5072708;28;20585;-68
2021/01/17 01:43:22;;;;;;;21.20;12.60;;;1.40;40.40;;;;;;5072747;28;20160;-68
2021/01/17 01:45:48;;;;;;;24.23;13.88;;;1.50;33.20;;;;;;5072611;28;20231;-67
2021/01/17 01:48:16;;;;;;;25.23;13.43;;;1.50;40.20;;;;;;5072487;28;20534;-67
2021/01/17 01:50:43;;;;;;;21.58;13.32;;;1.50;47.50;;;;;;5072527;28;20200;-68
2021/01/17 01:53:09;;;;;;;18.83;11.88;;;1.50;56.80;;;;;;5072544;28;20207;-67
2021/01/17 01:55:35;;;;;;;22.95;13.18;;;1.40;34.80;;;;;;5072608;28;20579;-67
2021/01/17 01:58:05;;;;;;;20.33;12.60;;;1.40;70.60;;;;;;5072939;28;20176;-67
2021/01/17 02:00:31;;;;;;;25.05;13.82;;;1.40;75.70;;;;;;5072927;28;20214;-67
2021/01/17 02:02:57;;;;;;;21.75;13.27;;;1.40;53.50;;;;;;5073030;28;20164;-68
2021/01/17 02:05:22;;;;;;;25.20;14.80;;;1.40;71.80;;;;;;5072495;28;20167;-68
2021/01/17 02:08:11;;;;;;;21.07;12.87;;;1.60;44.70;;;;;;5072799;28;20192;-68
2021/01/17 02:10:36;;;;;;;21.85;12.63;;;1.40;60.30;;;;;;5072585;28;20192;-68
2021/01/17 02:13:20;;;;;;;23.80;13.80;;;1.40;88.80;;;;;;5072664;28;20218;-68
2021/01/17 02:15:49;;;;;;;26.35;15.68;;;1.30;90.60;;;;;;5072736;28;20156;-68
2021/01/17 02:18:16;;;;;;;22.30;13.95;;;1.50;74.30;;;;;;5072585;28;20196;-68
2021/01/17 02:20:42;;;;;;;21.30;12.85;;;1.50;37.00;;;;;;5072308;28;20216;-68
2021/01/17 02:23:16;;;;;;;22.67;12.98;;;1.40;91.30;;;;;;5072404;28;20659;-67
2021/01/17 02:25:42;;;;;;;23.88;14.20;;;1.50;41.40;;;;;;5072621;28;20662;-68
2021/01/17 02:28:12;;;;;;;21.90;13.20;;;1.40;65.30;;;;;;5072386;28;20234;-67
2021/01/17 02:30:45;;;;;;;23.88;12.77;;;1.30;74.00;;;;;;5074059;28;20189;-68
2021/01/17 02:33:31;;;;;;;22.63;13.68;;;1.60;31.00;;;;;;5076208;28;20227;-68
2021/01/17 02:36:21;;;;;;;28.65;15.75;;;1.50;17.90;;;;;;5076000;28;20168;-68
2021/01/17 02:38:55;;;;;;;24.80;14.98;;;1.40;45.10;;;;;;5075961;28;20229;-67
2021/01/17 02:41:32;;;;;;;24.42;14.48;;;1.40;99.90;;;;;;5076173;28;20152;-68
2021/01/17 02:43:59;;;;;;;30.48;15.77;;;1.40;94.80;;;;;;5075868;28;20175;-67
2021/01/17 02:46:24;;;;;;;21.83;12.88;;;1.50;70.80;;;;;;5075793;28;20210;-67
2021/01/17 02:48:50;;;;;;;22.43;13.40;;;1.60;38.70;;;;;;5075696;28;20664;-67
2021/01/17 02:51:16;;;;;;;21.60;13.83;;;1.60;34.20;;;;;;5075821;28;20211;-67
2021/01/17 02:53:48;;;;;;;29.17;13.27;;;1.60;28.30;;;;;;5075732;28;20160;-68
2021/01/17 02:56:18;;;;;;;23.10;14.23;;;1.50;28.90;;;;;;5075594;28;20583;-68
2021/01/17 02:58:48;;;;;;;28.52;14.15;;;1.50;26.50;;;;;;5075629;28;20531;-67
2021/01/17 03:01:18;;;;;;;28.65;15.35;;;1.50;79.60;;;;;;5075525;28;20188;-68
2021/01/17 03:03:47;;;;;;;29.88;15.57;;;1.50;48.00;;;;;;5075527;28;20172;-68
2021/01/17 03:06:13;;;;;;;22.98;13.18;;;1.70;40.40;;;;;;5075469;28;20702;-68
2021/01/17 03:08:38;;;;;;;28.80;15.35;;;1.70;10.40;;;;;;5075550;28;20200;-67
2021/01/17 03:11:05;;;;;;;22.97;14.13;;;1.60;22.30;;;;;;5075446;28;20289;-66
2021/01/17 03:13:35;;;;;;;27.30;13.23;;;1.70;31.00;;;;;;5075702;28;20173;-67
2021/01/17 03:16:00;;;;;;;22.83;13.57;;;1.50;1.00;;;;;;5075414;28;20172;-68
2021/01/17 03:18:26;;;;;;;25.80;14.50;;;1.70;46.30;;;;;;5075428;28;20225;-67
2021/01/17 03:20:52;;;;;;;27.50;13.53;;;1.80;1.00;;;;;;5075438;28;20409;-67
2021/01/17 03:23:17;;;;;;;31.90;15.77;;;1.50;7.50;;;;;;5075462;28;20204;-68
2021/01/17 03:25:43;;;;;;;23.03;14.43;;;1.60;1.20;;;;;;5075054;28;20196;-68
2021/01/17 03:28:08;;;;;;;24.67;14.57;;;1.70;5.50;;;;;;5075087;28;20632;-66
2021/01/17 03:30:34;;;;;;;28.23;16.40;;;1.70;8.90;;;;;;5075063;28;20202;-68
2021/01/17 03:33:00;;;;;;;26.30;14.83;;;1.60;20.50;;;;;;5075021;28;20167;-67
2021/01/17 03:35:25;;;;;;;26.97;16.67;;;1.70;4.40;;;;;;5074953;28;20579;-68
2021/01/17 03:37:51;;;;;;;27.63;14.90;;;1.70;1.00;;;;;;5074878;28;20160;-68
2021/01/17 03:40:16;;;;;;;31.60;16.90;;;1.90;1.00;;;;;;5074773;28;20184;-68
2021/01/17 03:42:42;;;;;;;22.97;13.87;;;1.60;1.00;;;;;;5073705;28;20246;-68
2021/01/17 03:45:08;;;;;;;26.37;16.10;;;1.60;9.10;;;;;;5075029;28;20212;-68
2021/01/17 03:47:33;;;;;;;23.23;15.40;;;1.70;14.30;;;;;;5073235;28;20211;-68
2021/01/17 03:49:59;;;;;;;27.23;15.10;;;1.80;16.10;;;;;;5074852;28;20783;-68
2021/01/17 03:52:24;;;;;;;27.00;14.93;;;1.80;1.00;;;;;;5074596;28;20541;-68
2021/01/17 03:54:50;;;;;;;23.37;13.47;;;1.90;1.00;;;;;;5074661;28;20255;-68
2021/01/17 03:57:15;;;;;;;28.70;16.50;;;1.90;1.00;;;;;;5074558;28;20172;-67
2021/01/17 03:59:41;;;;;;;26.13;15.40;;;1.90;1.00;;;;;;5074452;28;20188;-68
2021/01/17 04:02:06;;;;;;;24.43;15.37;;;1.90;1.00;;;;;;5074462;28;20169;-68
2021/01/17 04:04:32;;;;;;;24.33;14.77;;;2.00;1.00;;;;;;5074640;28;20173;-67
2021/01/17 04:06:58;;;;;;;27.37;15.40;;;2.00;1.00;;;;;;5074277;28;20276;-68
2021/01/17 04:09:23;;;;;;;31.80;16.77;;;2.00;1.00;;;;;;5074373;28;20191;-67
2021/01/17 04:11:49;;;;;;;27.00;14.00;;;1.90;1.00;;;;;;5074546;28;20165;-67
2021/01/17 04:14:15;;;;;;;24.33;15.00;;;1.90;1.00;;;;;;5074154;28;20156;-68
2021/01/17 04:16:51;;;;;;;27.95;15.38;;;1.90;1.00;;;;;;5074191;28;20169;-67
2021/01/17 04:19:17;;;;;;;26.08;15.50;;;1.80;1.00;;;;;;5074085;28;20187;-67
2021/01/17 04:21:43;;;;;;;22.97;13.80;;;1.80;1.00;;;;;;5074018;28;20179;-67
2021/01/17 04:24:08;;;;;;;22.27;13.73;;;1.90;1.00;;;;;;5074106;28;20175;-67
2021/01/17 04:26:34;;;;;;;29.60;16.43;;;1.90;1.00;;;;;;5073951;28;20967;-67
2021/01/17 04:28:59;;;;;;;30.27;15.07;;;2.00;1.00;;;;;;5073936;28;20168;-67
2021/01/17 04:31:25;;;;;;;24.67;14.80;;;2.00;1.00;;;;;;5073929;28;20157;-67
2021/01/17 04:33:51;;;;;;;28.70;15.10;;;1.80;1.00;;;;;;5073825;28;20218;-67
2021/01/17 04:36:16;;;;;;;28.87;15.13;;;1.90;1.00;;;;;;5073704;28;20259;-67
2021/01/17 04:38:42;;;;;;;26.83;15.70;;;1.80;1.00;;;;;;5073750;28;20168;-66
2021/01/17 04:41:13;;;;;;;22.20;13.47;;;2.00;1.00;;;;;;5073641;28;20192;-67
2021/01/17 04:43:56;;;;;;;26.38;14.45;;;1.90;1.00;;;;;;5073661;28;20167;-67
2021/01/17 04:46:23;;;;;;;23.98;14.60;;;1.90;1.00;;;;;;5073773;28;20604;-67
2021/01/17 04:48:55;;;;;;;32.42;15.27;;;1.90;1.00;;;;;;5073435;28;20211;-67
2021/01/17 04:51:25;;;;;;;28.10;15.55;;;1.90;1.00;;;;;;5073527;28;20494;-67
2021/01/17 04:53:51;;;;;;;25.45;15.20;;;2.10;1.00;;;;;;5073205;28;20176;-67
2021/01/17 04:56:48;;;;;;;27.25;15.25;;;2.10;1.00;;;;;;5073419;28;20667;-67
2021/01/17 04:59:14;;;;;;;22.33;13.60;;;2.00;1.00;;;;;;5073550;28;20603;-67
2021/01/17 05:01:56;;;;;;;23.50;14.15;;;1.90;1.00;;;;;;5073258;28;20173;-67
2021/01/17 05:04:45;;;;;;;24.10;14.63;;;1.80;1.00;;;;;;5073298;28;20156;-67
2021/01/17 05:07:16;;;;;;;28.60;15.63;;;1.90;13.70;;;;;;5073043;28;20611;-67
2021/01/17 05:09:58;;;;;;;24.73;15.00;;;2.00;1.00;;;;;;5073434;28;20267;-67
2021/01/17 05:12:50;;;;;;;24.25;14.00;;;2.10;1.00;;;;;;5073306;28;20570;-67
2021/01/17 05:15:20;;;;;;;28.52;14.98;;;2.00;1.00;;;;;;5073084;28;20165;-67
2021/01/17 05:17:46;;;;;;;28.17;15.55;;;1.90;1.00;;;;;;5073543;28;20168;-67
2021/01/17 05:20:12;;;;;;;31.87;15.20;;;2.00;1.00;;;;;;5073057;28;20183;-67
2021/01/17 05:22:38;;;;;;;23.17;14.00;;;1.90;1.00;;;;;;5071841;28;20403;-67
2021/01/17 05:25:06;;;;;;;21.30;14.80;;;1.90;1.00;;;;;;5072990;28;20199;-67
2021/01/17 05:27:32;;;;;;;27.63;15.10;;;1.90;1.00;;;;;;5072905;28;20714;-66
2021/01/17 05:29:58;;;;;;;27.75;16.25;;;1.90;1.00;;;;;;5073170;28;20184;-67
2021/01/17 05:32:25;;;;;;;28.07;14.80;;;1.80;1.00;;;;;;5072906;28;20217;-67
2021/01/17 05:34:51;;;;;;;26.60;15.45;;;1.80;1.00;;;;;;5072867;28;20251;-67
2021/01/17 05:37:17;;;;;;;29.20;17.33;;;1.50;12.10;;;;;;5072808;28;20176;-67
2021/01/17 05:39:56;;;;;;;28.87;16.30;;;1.50;67.60;;;;;;5073304;28;20192;-67
2021/01/17 05:42:29;;;;;;;30.15;16.48;;;1.80;41.50;;;;;;5072819;28;20213;-67
2021/01/17 05:45:18;;;;;;;26.45;15.05;;;1.90;10.70;;;;;;5072833;28;20156;-67
2021/01/17 05:47:54;;;;;;;26.88;16.40;;;1.90;1.00;;;;;;5072714;28;20250;-67
2021/01/17 05:50:20;;;;;;;28.35;16.50;;;2.10;1.00;;;;;;5072620;28;20191;-67
2021/01/17 05:52:56;;;;;;;25.00;15.00;;;2.20;1.00;;;;;;5072725;28;20633;-68
2021/01/17 05:55:33;;;;;;;26.60;16.17;;;2.20;1.00;;;;;;5072668;28;20472;-67
2021/01/17 05:58:25;;;;;;;25.67;14.27;;;2.10;1.00;;;;;;5073754;28;20175;-67
2021/01/17 06:00:56;;;;;;;31.73;16.15;;;2.10;1.00;;;;;;5070784;28;20200;-67
2021/01/17 06:03:26;;;;;;;27.00;16.33;;;2.10;1.00;;;;;;5073441;28;20148;-67
2021/01/17 06:05:57;;;;;;;31.35;14.93;;;2.10;1.00;;;;;;5074919;28;20556;-66
2021/01/17 06:08:25;;;;;;;24.42;14.23;;;2.10;1.00;;;;;;5077303;28;20202;-66
2021/01/17 06:10:53;;;;;;;25.77;14.25;;;2.20;1.00;;;;;;5076853;28;20586;-67
2021/01/17 06:13:22;;;;;;;29.88;16.13;;;2.20;1.00;;;;;;5076863;28;20567;-67
2021/01/17 06:15:47;;;;;;;29.70;14.88;;;2.20;1.00;;;;;;5077090;28;20524;-67
2021/01/17 06:18:21;;;;;;;30.70;14.57;;;2.10;1.00;;;;;;5076460;28;20168;-66
2021/01/17 06:20:47;;;;;;;30.70;15.45;;;2.10;1.00;;;;;;5076622;28;20325;-67
2021/01/17 06:23:19;;;;;;;32.60;17.05;;;2.10;1.00;;;;;;5076349;28;20195;-67
2021/01/17 06:25:46;;;;;;;27.13;16.17;;;2.20;1.00;;;;;;5076541;28;20176;-67
2021/01/17 06:28:15;;;;;;;25.25;15.38;;;2.00;1.00;;;;;;5076237;28;20178;-67
2021/01/17 06:30:41;;;;;;;29.15;15.40;;;2.20;1.00;;;;;;5074891;28;20281;-67
2021/01/17 06:33:09;;;;;;;25.15;14.32;;;2.20;1.00;;;;;;5076177;28;20161;-67
2021/01/17 06:35:39;;;;;;;29.40;15.70;;;2.40;1.00;;;;;;5076142;28;20533;-67
2021/01/17 06:38:22;;;;;;;26.92;15.60;;;2.30;1.00;;;;;;5076310;28;20156;-66
2021/01/17 06:40:49;;;;;;;27.75;15.57;;;2.30;1.00;;;;;;5076025;28;20191;-67
2021/01/17 06:43:15;;;;;;;28.45;17.48;;;2.40;1.00;;;;;;5075976;28;20164;-66
2021/01/17 06:45:42;;;;;;;28.92;16.10;;;2.40;1.00;;;;;;5075815;28;20164;-67
2021/01/17 06:48:19;;;;;;;21.42;14.57;;;2.20;1.00;;;;;;5075805;28;20211;-67
2021/01/17 06:50:45;;;;;;;29.60;16.85;;;2.20;1.00;;;;;;5075750;28;20246;-66
2021/01/17 06:53:22;;;;;;;30.63;15.03;;;2.20;1.00;;;;;;5075807;28;20164;-67
2021/01/17 06:55:47;;;;;;;28.10;14.98;;;2.40;1.00;;;;;;5075721;28;20163;-67
2021/01/17 06:58:19;;;;;;;24.37;14.73;;;2.30;1.00;;;;;;5075731;28;20176;-67
2021/01/17 07:00:46;;;;;;;25.00;15.82;;;2.20;1.00;;;;;;5075616;28;20188;-67
2021/01/17 07:03:19;;;;;;;25.60;14.80;;;2.30;1.00;;;;;;5075579;28;20222;-67
2021/01/17 07:06:10;;;;;;;38.92;17.98;;;2.30;1.00;;;;;;5075765;28;20200;-67
2021/01/17 07:08:40;;;;;;;26.38;14.00;;;2.30;1.00;;;;;;5075710;28;20520;-67
2021/01/17 07:11:19;;;;;;;25.55;15.30;;;2.10;1.00;;;;;;5075396;28;20188;-66
2021/01/17 07:13:48;;;;;;;26.60;15.65;;;2.00;6.30;;;;;;5076057;28;20153;-66
2021/01/17 07:16:31;;;;;;;27.00;14.73;;;2.20;1.00;;;;;;5075321;28;20205;-67
2021/01/17 07:19:01;;;;;;;23.48;14.10;;;2.40;1.00;;;;;;5075387;28;20252;-66
2021/01/17 07:21:34;;;;;;;27.30;16.10;;;2.60;1.00;;;;;;5075362;28;20156;-67
2021/01/17 07:24:04;;;;;;;24.35;15.30;;;2.60;1.00;;;;;;5075794;28;20153;-67
2021/01/17 07:26:48;;;;;;;25.23;14.60;;;2.60;1.00;;;;;;5075203;28;20202;-67
2021/01/17 07:29:18;;;;;;;29.90;15.57;;;2.50;1.00;;;;;;5075316;28;20187;-67
2021/01/17 07:31:46;;;;;;;28.77;16.40;;;2.50;1.00;;;;;;5075008;28;20191;-67
2021/01/17 07:34:12;;;;;;;30.70;16.17;;;2.40;1.00;;;;;;5075117;28;20164;-67
2021/01/17 07:36:46;;;;;;;31.08;17.20;;;2.60;1.00;;;;;;5074952;28;20187;-67
2021/01/17 07:39:15;;;;;;;28.58;17.83;;;2.50;1.00;;;;;;5074954;28;20537;-67
2021/01/17 07:41:47;;;;;;;26.73;15.77;;;2.50;1.00;;;;;;5074966;28;20174;-67
2021/01/17 07:44:17;;;;;;;25.77;15.23;;;2.40;1.00;;;;;;5075293;28;20159;-67
2021/01/17 07:46:42;;;;;;;26.02;15.10;;;2.40;9.90;;;;;;5074783;28;20226;-67
2021/01/17 07:49:11;;;;;;;25.17;15.50;;;2.30;8.70;;;;;;5074691;28;20200;-68
2021/01/17 07:51:37;;;;;;;26.35;15.25;;;2.30;42.50;;;;;;5074634;28;20168;-66
2021/01/17 07:54:18;;;;;;;31.80;17.03;;;2.30;22.70;;;;;;5074891;28;20175;-67
2021/01/17 07:56:46;;;;;;;29.83;16.23;;;2.50;32.10;;;;;;5074848;28;20159;-67
2021/01/17 07:59:12;;;;;;;29.73;16.60;;;2.30;29.30;;;;;;5074536;28;20335;-67
2021/01/17 08:01:38;;;;;;;29.17;16.27;;;2.40;62.50;;;;;;5074778;28;20266;-66
2021/01/17 08:04:04;;;;;;;28.10;16.67;;;2.30;47.10;;;;;;5074511;28;20455;-67
2021/01/17 08:06:35;;;;;;;29.53;15.83;;;2.20;99.90;;;;;;5074286;28;20199;-67
2021/01/17 08:09:12;;;;;;;34.78;16.15;;;2.20;99.90;;;;;;5074192;28;20514;-67
2021/01/17 08:11:56;;;;;;;29.10;15.55;;;2.30;73.70;;;;;;5074059;28;20152;-66
2021/01/17 08:14:30;;;;;;;27.23;15.80;;;2.40;14.30;;;;;;5074134;28;20164;-67
2021/01/17 08:17:13;;;;;;;28.55;16.10;;;2.30;61.20;;;;;;5074068;28;20208;-67
2021/01/17 08:19:53;;;;;;;27.05;16.20;;;2.40;99.90;;;;;;5074280;28;20187;-66
2021/01/17 08:22:22;;;;;;;28.63;15.75;;;2.30;64.40;;;;;;5073893;28;20206;-67
2021/01/17 08:24:48;;;;;;;31.75;17.50;;;2.40;99.90;;;;;;5073944;28;20172;-67
2021/01/17 08:27:32;;;;;;;33.63;17.90;;;2.40;99.90;;;;;;5072265;28;20556;-67
2021/01/17 08:30:07;;;;;;;30.83;16.60;;;2.50;82.30;;;;;;5073676;28;20267;-67
2021/01/17 08:37:47;;;;;;;27.45;17.67;;;2.60;80.20;;;;;;5073929;28;20202;-66
2021/01/17 08:40:43;;;;;;;30.67;17.10;;;2.50;84.40;;;;;;5073456;28;20188;-67
2021/01/17 08:43:15;;;;;;;26.40;16.25;;;2.50;99.90;;;;;;5073831;28;20559;-66
2021/01/17 08:45:45;;;;;;;28.10;16.30;;;2.50;92.60;;;;;;5073721;28;20198;-66
2021/01/17 08:48:17;;;;;;;30.65;16.08;;;2.50;99.90;;;;;;5073559;28;20184;-66
2021/01/17 08:50:44;;;;;;;28.08;18.30;;;2.50;97.20;;;;;;5073532;28;20192;-67
2021/01/17 08:53:32;;;;;;;28.60;16.63;;;2.30;99.90;;;;;;5074146;28;20177;-66
2021/01/17 08:56:21;;;;;;;32.35;16.88;;;2.40;99.90;;;;;;5073763;28;20149;-67
2021/01/17 08:58:50;;;;;;;23.88;15.85;;;2.50;99.90;;;;;;5073689;28;20152;-67
2021/01/17 09:01:18;;;;;;;36.75;18.88;;;2.70;99.90;;;;;;5073404;28;20597;-66
2021/01/17 09:03:43;;;;;;;32.33;17.98;;;2.70;79.80;;;;;;5073314;28;20160;-66
2021/01/17 09:06:11;;;;;;;32.90;17.33;;;2.60;99.90;;;;;;5073214;28;20188;-67
2021/01/17 09:08:42;;;;;;;29.15;17.42;;;2.70;62.20;;;;;;5073232;28;20247;-67
2021/01/17 09:11:29;;;;;;;30.33;15.98;;;2.80;62.80;;;;;;5073206;28;20577;-67
2021/01/17 09:14:12;;;;;;;33.25;18.65;;;2.80;55.90;;;;;;5073266;28;20230;-67
2021/01/17 09:17:01;;;;;;;26.77;16.98;;;2.80;65.70;;;;;;5073487;28;20172;-67
2021/01/17 09:19:32;;;;;;;30.30;17.70;;;2.90;58.70;;;;;;5073238;28;20200;-67
2021/01/17 09:21:59;;;;;;;28.83;16.73;;;2.90;34.20;;;;;;5073137;28;20175;-67
2021/01/17 09:24:28;;;;;;;33.55;18.73;;;3.00;36.90;;;;;;5073061;28;20542;-66
2021/01/17 09:26:56;;;;;;;30.50;17.80;;;3.00;43.00;;;;;;5073186;28;20716;-67
2021/01/17 09:29:24;;;;;;;29.08;16.20;;;3.00;46.10;;;;;;5072872;28;20188;-67
2021/01/17 09:31:52;;;;;;;34.08;17.15;;;2.70;78.10;;;;;;5073016;28;20164;-67
2021/01/17 09:34:28;;;;;;;28.42;16.73;;;2.90;98.00;;;;;;5073120;28;20168;-67
2021/01/17 09:36:55;;;;;;;30.95;17.27;;;3.10;57.30;;;;;;5073023;28;20151;-67
2021/01/17 09:39:28;;;;;;;28.77;16.35;;;3.10;18.30;;;;;;5072524;28;20189;-67
2021/01/17 09:41:54;;;;;;;36.47;18.45;;;3.00;44.10;;;;;;5072901;28;20567;-67
2021/01/17 09:44:20;;;;;;;29.63;17.25;;;3.20;26.40;;;;;;5072967;28;20194;-67
2021/01/17 09:46:46;;;;;;;32.37;17.70;;;3.10;73.80;;;;;;5072793;28;20637;-67
2021/01/17 09:49:11;;;;;;;28.27;17.37;;;3.10;99.90;;;;;;5072590;28;20685;-67
2021/01/17 09:51:37;;;;;;;30.40;18.00;;;2.90;99.90;;;;;;5072739;28;20180;-67
2021/01/17 09:54:03;;;;;;;30.70;17.03;;;3.10;99.90;;;;;;5072625;28;20580;-67
2021/01/17 09:56:28;;;;;;;30.20;17.20;;;3.00;99.90;;;;;;5072746;28;20214;-67
2021/01/17 09:58:54;;;;;;;32.03;18.07;;;3.00;99.90;;;;;;5072602;28;20243;-67
2021/01/17 10:01:20;;;;;;;30.87;17.70;;;3.00;99.90;;;;;;5072805;28;20187;-67
2021/01/17 10:03:49;;;;;;;32.83;16.50;;;3.00;99.90;;;;;;5072593;28;20168;-67
2021/01/17 10:06:16;;;;;;;30.50;18.08;;;3.10;99.90;;;;;;5072574;28;20194;-67
2021/01/17 10:08:43;;;;;;;36.20;18.75;;;3.20;74.10;;;;;;5073069;28;20157;-67
2021/01/17 10:11:09;;;;;;;28.33;17.23;;;3.20;99.90;;;;;;5073365;28;20706;-67
2021/01/17 10:13:34;;;;;;;27.77;16.90;;;3.20;96.30;;;;;;5072950;28;20168;-67
2021/01/17 10:16:00;;;;;;;31.97;18.77;;;3.20;99.90;;;;;;5071072;28;20222;-67
2021/01/17 10:18:27;;;;;;;28.63;17.20;;;3.20;94.70;;;;;;5072529;28;20179;-67
2021/01/17 10:20:55;;;;;;;26.60;17.00;;;3.20;96.60;;;;;;5072365;28;20286;-67
2021/01/17 10:23:31;;;;;;;26.80;16.63;;;3.30;96.10;;;;;;5072429;28;20172;-67
2021/01/17 10:25:57;;;;;;;28.30;16.10;;;3.40;63.90;;;;;;5072501;28;20257;-67
2021/01/17 10:28:26;;;;;;;30.90;17.15;;;3.30;67.50;;;;;;5072380;28;20651;-67
2021/01/17 10:30:59;;;;;;;36.35;21.00;;;3.20;99.90;;;;;;5072350;28;20660;-67
2021/01/17 10:33:28;;;;;;;29.05;18.05;;;3.30;99.90;;;;;;5072378;28;20657;-66
2021/01/17 10:35:54;;;;;;;32.08;19.35;;;3.30;99.90;;;;;;5072453;28;20659;-66
2021/01/17 10:38:20;;;;;;;32.80;19.40;;;3.30;96.80;;;;;;5072379;28;20176;-67
2021/01/17 10:40:48;;;;;;;32.92;17.35;;;3.40;99.90;;;;;;5072229;28;20208;-67
2021/01/17 10:43:35;;;;;;;30.70;16.40;;;3.40;79.30;;;;;;5072812;28;20183;-67
2021/01/17 10:46:19;;;;;;;30.88;18.48;;;3.20;99.90;;;;;;5072145;28;20180;-67
2021/01/17 10:48:52;;;;;;;26.05;15.50;;;3.40;99.90;;;;;;5072190;28;20661;-67
2021/01/17 10:51:29;;;;;;;31.92;17.30;;;3.50;94.90;;;;;;5073415;28;20163;-67
2021/01/17 10:53:57;;;;;;;35.22;18.17;;;3.40;46.20;;;;;;5075829;28;20519;-66
2021/01/17 10:56:23;;;;;;;30.58;17.48;;;3.50;49.20;;;;;;5075785;28;20274;-67
2021/01/17 10:58:49;;;;;;;31.30;17.15;;;3.50;54.90;;;;;;5075741;28;20176;-67
2021/01/17 11:01:15;;;;;;;30.98;17.65;;;3.60;66.10;;;;;;5075688;28;20188;-67
2021/01/17 11:03:42;;;;;;;33.40;18.43;;;3.60;38.80;;;;;;5075678;28;20164;-67
2021/01/17 11:06:16;;;;;;;31.73;18.25;;;3.50;79.40;;;;;;5075528;28;20515;-67
2021/01/17 11:08:42;;;;;;;28.88;18.38;;;3.50;99.90;;;;;;5075828;28;20236;-67
2021/01/17 11:11:09;;;;;;;30.92;20.17;;;3.30;96.50;;;;;;5075379;28;20306;-67
2021/01/17 11:13:35;;;;;;;62.15;27.27;;;3.30;99.90;;;;;;5075583;28;20533;-67
2021/01/17 11:16:01;;;;;;;38.77;21.40;;;3.30;99.90;;;;;;5075520;28;20161;-67
2021/01/17 11:18:27;;;;;;;35.23;20.80;;;3.00;99.90;;;;;;5075363;28;20995;-67
2021/01/17 11:20:57;;;;;;;37.60;19.57;;;3.20;99.90;;;;;;5075310;28;20419;-67
2021/01/17 11:23:24;;;;;;;26.67;17.05;;;3.30;99.90;;;;;;5075302;28;20165;-67
2021/01/17 11:26:08;;;;;;;26.70;16.83;;;3.50;99.90;;;;;;5075179;28;20164;-67
2021/01/17 11:28:34;;;;;;;29.25;16.90;;;3.60;91.30;;;;;;5075383;28;20175;-67
2021/01/17 11:31:21;;;;;;;32.43;18.27;;;3.70;95.40;;;;;;5075042;28;20192;-67
2021/01/17 11:33:47;;;;;;;30.15;17.08;;;3.80;43.50;;;;;;5075287;28;20161;-67
2021/01/17 11:36:24;;;;;;;33.72;18.80;;;3.40;57.40;;;;;;5074941;28;20161;-67
2021/01/17 11:38:53;;;;;;;34.50;19.85;;;3.40;99.90;;;;;;5075387;28;20727;-67
2021/01/17 11:41:22;;;;;;;26.95;16.38;;;3.50;99.90;;;;;;5074794;28;20553;-67
2021/01/17 11:43:48;;;;;;;31.92;17.98;;;3.50;99.90;;;;;;5074854;28;20213;-67
2021/01/17 11:46:16;;;;;;;33.97;17.63;;;3.50;99.90;;;;;;5073440;28;20192;-67
2021/01/17 11:48:43;;;;;;;32.33;17.27;;;3.60;99.90;;;;;;5074523;28;20176;-67
2021/01/17 11:51:10;;;;;;;28.90;17.17;;;3.70;99.90;;;;;;5075243;28;20191;-67
2021/01/17 11:53:37;;;;;;;30.73;17.90;;;3.90;99.90;;;;;;5074749;28;20172;-67
2021/01/17 11:56:03;;;;;;;29.42;17.45;;;3.90;61.00;;;;;;5074669;28;20249;-67
2021/01/17 11:58:39;;;;;;;29.15;17.73;;;3.80;50.90;;;;;;5074546;28;20237;-67
2021/01/17 12:01:05;;;;;;;29.65;16.88;;;3.80;89.30;;;;;;5074505;28;20232;-67
2021/01/17 12:03:41;;;;;;;29.58;17.42;;;4.00;23.90;;;;;;5073533;28;20263;-67
2021/01/17 12:06:19;;;;;;;29.85;18.38;;;3.80;32.60;;;;;;5074396;28;20199;-67
2021/01/17 12:08:52;;;;;;;25.65;16.80;;;3.60;54.10;;;;;;5074548;28;20502;-67
2021/01/17 12:11:43;;;;;;;26.45;16.67;;;3.70;37.70;;;;;;5073077;28;20180;-67
2021/01/17 12:14:21;;;;;;;30.73;17.80;;;3.70;89.40;;;;;;5074605;28;20172;-67
2021/01/17 12:16:50;;;;;;;28.90;16.98;;;3.70;90.60;;;;;;5074538;28;20221;-67
2021/01/17 12:19:17;;;;;;;30.50;18.98;;;3.40;99.90;;;;;;5074009;28;20219;-67
2021/01/17 12:21:45;;;;;;;38.47;19.60;;;3.60;99.90;;;;;;5074469;28;20169;-67
2021/01/17 12:24:13;;;;;;;30.33;17.90;;;3.80;97.60;;;;;;5074078;28;20194;-67
2021/01/17 12:26:41;;;;;;;32.25;18.05;;;3.90;60.60;;;;;;5074265;28;20192;-67
2021/01/17 12:29:07;;;;;;;30.55;17.00;;;3.90;99.90;;;;;;5073982;28;20167;-67
2021/01/17 12:31:33;;;;;;;32.80;17.20;;;4.00;99.90;;;;;;5073857;28;20172;-67
2021/01/17 12:33:59;;;;;;;37.50;18.85;;;3.90;81.70;;;;;;5073764;28;20430;-67
2021/01/17 12:36:27;;;;;;;33.85;19.40;;;3.80;99.90;;;;;;5073611;28;20172;-67
2021/01/17 12:38:54;;;;;;;37.63;17.73;;;3.70;99.90;;;;;;5073747;28;20164;-67
2021/01/17 12:41:22;;;;;;;30.35;19.42;;;3.70;99.90;;;;;;5073665;28;20641;-66
2021/01/17 12:43:48;;;;;;;36.08;18.48;;;3.70;99.90;;;;;;5073750;28;20184;-67
2021/01/17 12:46:14;;;;;;;33.07;19.83;;;3.50;99.90;;;;;;5073371;28;20683;-67
2021/01/17 12:48:40;;;;;;;34.78;17.27;;;3.50;99.90;;;;;;5073398;28;20180;-67
2021/01/17 12:51:07;;;;;;;31.52;17.55;;;3.50;99.90;;;;;;5073291;28;20534;-67
2021/01/17 12:53:34;;;;;;;32.25;17.30;;;3.60;99.90;;;;;;5073290;28;20533;-67
2021/01/17 12:55:59;;;;;;;38.65;20.50;;;3.60;99.90;;;;;;5071995;28;20648;-66
2021/01/17 12:58:25;;;;;;;33.30;18.17;;;3.50;99.90;;;;;;5073514;28;20172;-66